createdAt,value
2018-12-07T00:01:29.997Z,9.00
2018-12-07T00:03:08.978Z,7.00
2018-12-07T00:04:53.608Z,6.20
2018-12-07T00:06:30.576Z,6.00
2018-12-07T00:08:09.045Z,6.00
2018-12-07T00:09:46.066Z,7.00
2018-12-07T00:11:22.893Z,7.00
2018-12-07T00:13:02.002Z,4.40
2018-12-07T00:16:33.976Z,7.40
2018-12-07T00:18:09.473Z,6.00
2018-12-07T00:19:48.112Z,6.00
2018-12-07T00:21:26.938Z,6.00
2018-12-07T00:23:05.170Z,4.00
2018-12-07T00:24:41.025Z,4.00
2018-12-07T00:26:16.111Z,5.60
2018-12-07T00:27:52.499Z,3.00
2018-12-07T00:29:28.836Z,3.00
2018-12-07T00:31:04.440Z,3.00
2018-12-07T00:32:46.306Z,0.00
2018-12-07T00:34:22.761Z,5.20
2018-12-07T00:36:05.511Z,6.40
2018-12-07T00:37:40.855Z,4.80
2018-12-07T00:39:16.724Z,3.60
2018-12-07T00:40:52.575Z,6.00
2018-12-07T00:42:28.394Z,4.00
2018-12-07T00:44:04.152Z,6.00
2018-12-07T00:45:42.813Z,6.00
2018-12-07T00:47:23.438Z,7.00
2018-12-07T00:49:09.918Z,6.00
2018-12-07T00:52:48.813Z,6.00
2018-12-07T00:54:31.233Z,6.00
2018-12-07T00:57:49.829Z,4.40
2018-12-07T00:59:25.253Z,5.60
2018-12-07T01:01:00.692Z,0.00
2018-12-07T01:02:35.985Z,6.00
2018-12-07T01:04:11.781Z,4.40
2018-12-07T01:05:47.076Z,3.60
2018-12-07T01:07:22.719Z,4.00
2018-12-07T01:08:58.858Z,3.60
2018-12-07T01:10:34.924Z,3.60
2018-12-07T01:12:11.371Z,1.40
2018-12-07T01:13:49.804Z,1.00
2018-12-07T01:15:28.781Z,4.00
2018-12-07T01:17:04.338Z,3.80
2018-12-07T01:18:40.042Z,1.00
2018-12-07T01:20:16.003Z,3.80
2018-12-07T01:21:51.553Z,2.60
2018-12-07T01:23:27.235Z,1.00
2018-12-07T01:25:02.651Z,1.80
2018-12-07T01:26:37.816Z,1.20
2018-12-07T01:28:13.216Z,0.00
2018-12-07T01:29:48.768Z,1.00
2018-12-07T01:31:24.412Z,2.20
2018-12-07T01:32:59.902Z,3.00
2018-12-07T01:34:35.022Z,3.00
2018-12-07T01:36:10.463Z,2.20
2018-12-07T01:37:45.604Z,3.00
2018-12-07T01:39:21.083Z,1.80
2018-12-07T01:40:56.467Z,0.00
2018-12-07T01:42:32.718Z,1.00
2018-12-07T01:44:08.452Z,0.80
2018-12-07T01:45:45.106Z,1.00
2018-12-07T01:47:20.642Z,3.00
2018-12-07T01:48:56.673Z,1.00
2018-12-07T01:50:33.231Z,1.00
2018-12-07T01:52:08.922Z,1.00
2018-12-07T01:53:45.726Z,0.00
2018-12-07T01:55:21.990Z,3.00
2018-12-07T01:56:57.853Z,1.00
2018-12-07T01:58:33.264Z,0.20
2018-12-07T02:00:10.049Z,1.00
2018-12-07T02:01:47.551Z,1.00
2018-12-07T02:03:25.571Z,1.00
2018-12-07T02:05:00.932Z,1.40
2018-12-07T02:06:37.521Z,0.00
2018-12-07T02:08:12.987Z,0.40
2018-12-07T02:09:49.351Z,1.00
2018-12-07T02:11:24.843Z,1.00
2018-12-07T02:13:00.736Z,1.00
2018-12-07T02:14:36.112Z,1.00
2018-12-07T02:16:11.886Z,0.80
2018-12-07T02:17:47.751Z,1.00
2018-12-07T02:19:24.178Z,1.00
2018-12-07T02:21:00.646Z,1.00
2018-12-07T02:22:36.442Z,0.20
2018-12-07T02:24:12.209Z,0.00
2018-12-07T02:25:48.595Z,1.00
2018-12-07T02:27:23.999Z,0.60
2018-12-07T02:29:00.241Z,0.00
2018-12-07T02:30:35.997Z,1.00
2018-12-07T02:32:11.328Z,1.00
2018-12-07T02:33:48.121Z,1.00
2018-12-07T02:35:24.223Z,1.00
2018-12-07T02:36:59.812Z,1.00
2018-12-07T02:38:35.644Z,1.00
2018-12-07T02:40:10.846Z,1.00
2018-12-07T02:41:46.831Z,1.00
2018-12-07T02:43:22.444Z,1.40
2018-12-07T02:44:57.962Z,2.20
2018-12-07T02:46:34.486Z,3.00
2018-12-07T02:48:09.757Z,3.40
2018-12-07T02:49:44.977Z,3.20
2018-12-07T02:51:20.488Z,1.80
2018-12-07T02:52:56.130Z,1.40
2018-12-07T02:54:32.251Z,1.00
2018-12-07T02:56:07.557Z,3.00
2018-12-07T02:57:42.829Z,2.60
2018-12-07T02:59:20.284Z,0.60
2018-12-07T03:00:59.567Z,3.00
2018-12-07T03:02:35.024Z,2.60
2018-12-07T03:04:10.124Z,1.00
2018-12-07T03:05:45.761Z,2.20
2018-12-07T03:07:22.791Z,4.00
2018-12-07T03:08:58.836Z,3.60
2018-12-07T03:10:34.108Z,3.60
2018-12-07T03:12:09.304Z,3.00
2018-12-07T03:13:44.876Z,3.00
2018-12-07T03:15:21.023Z,1.80
2018-12-07T03:16:57.428Z,1.40
2018-12-07T03:18:33.723Z,1.40
2018-12-07T03:20:09.638Z,1.00
2018-12-07T03:21:45.212Z,1.00
2018-12-07T03:23:21.327Z,3.60
2018-12-07T03:24:56.579Z,3.60
2018-12-07T03:26:32.119Z,3.00
2018-12-07T03:28:07.753Z,3.00
2018-12-07T03:29:43.195Z,1.00
2018-12-07T03:31:20.448Z,2.60
2018-12-07T03:32:55.896Z,1.00
2018-12-07T03:34:31.074Z,3.00
2018-12-07T03:36:06.569Z,3.00
2018-12-07T03:37:42.081Z,3.00
2018-12-07T03:39:19.273Z,3.00
2018-12-07T03:40:54.900Z,3.00
2018-12-07T03:42:31.428Z,3.00
2018-12-07T03:44:07.035Z,0.00
2018-12-07T03:45:42.846Z,2.20
2018-12-07T03:47:18.568Z,3.00
2018-12-07T03:48:53.984Z,3.00
2018-12-07T03:50:29.808Z,1.00
2018-12-07T03:52:05.131Z,0.20
2018-12-07T03:53:44.841Z,3.00
2018-12-07T03:55:28.433Z,3.00
2018-12-07T03:57:07.820Z,2.60
2018-12-07T03:58:53.645Z,3.00
2018-12-07T04:00:29.260Z,3.00
2018-12-07T04:02:05.222Z,3.00
2018-12-07T04:03:41.837Z,3.40
2018-12-07T04:05:17.680Z,0.00
2018-12-07T04:06:53.228Z,2.00
2018-12-07T04:08:29.296Z,3.80
2018-12-07T04:10:04.659Z,3.00
2018-12-07T04:11:40.432Z,3.80
2018-12-07T04:13:16.193Z,3.00
2018-12-07T04:14:51.495Z,3.20
2018-12-07T04:16:27.450Z,3.00
2018-12-07T04:18:02.887Z,2.60
2018-12-07T04:19:38.216Z,2.60
2018-12-07T04:21:13.424Z,1.00
2018-12-07T04:22:50.545Z,3.00
2018-12-07T04:24:26.016Z,3.00
2018-12-07T04:26:02.401Z,3.00
2018-12-07T04:27:37.925Z,3.00
2018-12-07T04:29:13.291Z,3.60
2018-12-07T04:30:48.614Z,3.00
2018-12-07T04:32:23.704Z,3.40
2018-12-07T04:33:59.278Z,0.00
2018-12-07T04:35:34.680Z,1.00
2018-12-07T04:37:10.059Z,4.00
2018-12-07T04:38:45.341Z,3.00
2018-12-07T04:40:21.724Z,3.80
2018-12-07T04:41:57.320Z,4.00
2018-12-07T04:43:33.228Z,1.00
2018-12-07T04:45:09.710Z,0.20
2018-12-07T04:46:45.052Z,0.00
2018-12-07T04:48:21.378Z,3.80
2018-12-07T04:49:58.356Z,4.00
2018-12-07T04:51:33.892Z,4.00
2018-12-07T04:53:09.941Z,3.00
2018-12-07T04:54:45.472Z,3.60
2018-12-07T04:56:21.806Z,3.00
2018-12-07T04:57:57.046Z,3.00
2018-12-07T04:59:32.452Z,1.40
2018-12-07T05:01:08.136Z,4.00
2018-12-07T05:02:43.678Z,4.00
2018-12-07T05:04:19.549Z,1.00
2018-12-07T05:05:54.969Z,4.60
2018-12-07T05:07:30.479Z,0.00
2018-12-07T05:09:07.419Z,1.40
2018-12-07T05:10:42.908Z,2.60
2018-12-07T05:12:18.745Z,3.00
2018-12-07T05:13:54.145Z,3.60
2018-12-07T05:15:29.712Z,3.00
2018-12-07T05:17:05.006Z,4.00
2018-12-07T05:18:40.923Z,4.00
2018-12-07T05:20:16.935Z,6.00
2018-12-07T05:21:52.709Z,5.20
2018-12-07T05:23:31.841Z,4.00
2018-12-07T05:25:07.794Z,3.40
2018-12-07T05:26:43.971Z,6.00
2018-12-07T05:28:20.822Z,6.20
2018-12-07T05:29:56.065Z,4.00
2018-12-07T05:31:31.980Z,1.00
2018-12-07T05:33:11.907Z,4.00
2018-12-07T05:34:47.397Z,4.00
2018-12-07T05:36:23.488Z,3.40
2018-12-07T05:37:59.046Z,3.60
2018-12-07T05:39:37.771Z,5.20
2018-12-07T05:41:15.257Z,5.20
2018-12-07T05:42:52.063Z,1.40
2018-12-07T05:44:28.239Z,4.00
2018-12-07T05:46:04.903Z,4.00
2018-12-07T05:47:41.233Z,5.60
2018-12-07T05:49:18.003Z,3.80
2018-12-07T05:50:56.629Z,3.80
2018-12-07T05:52:32.001Z,3.20
2018-12-07T05:54:08.604Z,3.00
2018-12-07T05:55:43.809Z,4.00
2018-12-07T05:57:19.556Z,3.00
2018-12-07T05:58:55.424Z,3.20
2018-12-07T06:00:31.057Z,3.00
2018-12-07T06:02:06.400Z,3.00
2018-12-07T06:03:42.549Z,3.20
2018-12-07T06:05:17.716Z,3.60
2018-12-07T06:06:54.325Z,3.40
2018-12-07T06:08:29.980Z,3.00
2018-12-07T06:10:07.631Z,1.00
2018-12-07T06:11:43.691Z,3.00
2018-12-07T06:13:21.303Z,1.00
2018-12-07T06:14:57.258Z,3.00
2018-12-07T06:16:33.845Z,1.80
2018-12-07T06:18:10.070Z,0.40
2018-12-07T06:19:46.116Z,0.20
2018-12-07T06:21:23.114Z,3.00
2018-12-07T06:22:59.018Z,1.00
2018-12-07T06:24:34.337Z,1.40
2018-12-07T06:26:10.254Z,1.00
2018-12-07T06:27:48.803Z,1.00
2018-12-07T06:29:26.097Z,1.00
2018-12-07T06:31:02.309Z,1.00
2018-12-07T06:32:38.580Z,1.80
2018-12-07T06:34:15.001Z,1.00
2018-12-07T06:35:50.729Z,3.60
2018-12-07T06:37:25.931Z,1.00
2018-12-07T06:39:01.808Z,0.60
2018-12-07T06:40:41.520Z,1.00
2018-12-07T06:42:19.327Z,4.80
2018-12-07T06:43:54.664Z,1.00
2018-12-07T06:45:31.423Z,6.00
2018-12-07T06:47:09.483Z,18.80
2018-12-07T06:48:52.499Z,1.00
2018-12-07T06:50:28.882Z,3.00
2018-12-07T06:52:05.193Z,2.60
2018-12-07T06:53:42.078Z,1.80
2018-12-07T06:55:17.563Z,0.40
2018-12-07T06:56:53.615Z,3.00
2018-12-07T06:58:29.832Z,1.80
2018-12-07T07:00:22.417Z,3.00
2018-12-07T07:01:58.098Z,2.60
2018-12-07T07:03:34.158Z,2.20
2018-12-07T07:05:11.652Z,3.80
2018-12-07T07:06:48.706Z,1.40
2018-12-07T07:08:24.772Z,1.00
2018-12-07T07:10:01.213Z,3.40
2018-12-07T07:11:36.807Z,3.20
2018-12-07T07:13:13.101Z,2.20
2018-12-07T07:14:49.451Z,3.00
2018-12-07T07:16:26.519Z,3.00
2018-12-07T07:18:02.078Z,1.40
2018-12-07T07:19:37.282Z,3.20
2018-12-07T07:21:18.331Z,3.00
2018-12-07T07:22:53.520Z,1.80
2018-12-07T07:24:29.964Z,3.20
2018-12-07T07:26:06.033Z,0.40
2018-12-07T07:27:41.616Z,1.00
2018-12-07T07:29:17.464Z,3.00
2018-12-07T07:30:53.162Z,3.00
2018-12-07T07:32:28.804Z,3.00
2018-12-07T07:34:04.289Z,1.00
2018-12-07T07:35:39.475Z,2.20
2018-12-07T07:37:14.566Z,5.60
2018-12-07T07:38:49.976Z,13.60
2018-12-07T07:40:25.288Z,16.80
2018-12-07T07:42:01.872Z,6.00
2018-12-07T07:43:37.000Z,7.00
2018-12-07T07:45:15.500Z,3.60
2018-12-07T07:46:52.040Z,2.80
2018-12-07T07:48:27.548Z,4.40
2018-12-07T07:50:03.252Z,4.00
2018-12-07T07:51:38.899Z,14.80
2018-12-07T07:53:14.178Z,10.00
2018-12-07T07:54:50.963Z,3.40
2018-12-07T07:56:26.151Z,3.20
2018-12-07T07:58:02.815Z,6.00
2018-12-07T07:59:38.287Z,4.00
2018-12-07T08:01:14.035Z,4.80
2018-12-07T08:02:51.560Z,4.00
2018-12-07T08:04:26.717Z,3.60
2018-12-07T08:06:09.577Z,6.00
2018-12-07T08:07:49.930Z,5.60
2018-12-07T08:09:44.497Z,3.60
2018-12-07T08:11:30.344Z,2.20
2018-12-07T08:13:10.869Z,5.60
2018-12-07T08:14:56.667Z,5.60
2018-12-07T08:16:41.476Z,3.00
2018-12-07T08:18:18.629Z,4.40
2018-12-07T08:19:57.824Z,4.00
2018-12-07T08:21:45.942Z,5.60
2018-12-07T08:23:31.607Z,6.00
2018-12-07T08:25:09.657Z,3.00
2018-12-07T08:26:46.915Z,4.00
2018-12-07T08:28:32.789Z,5.60
2018-12-07T08:30:18.333Z,3.80
2018-12-07T08:31:58.725Z,4.00
2018-12-07T08:33:39.454Z,4.80
2018-12-07T08:35:22.661Z,5.80
2018-12-07T08:36:59.436Z,1.80
2018-12-07T08:38:40.245Z,6.20
2018-12-07T08:40:22.705Z,4.40
2018-12-07T08:42:06.897Z,4.00
2018-12-07T08:43:54.600Z,5.20
2018-12-07T08:47:37.839Z,5.00
2018-12-07T08:49:20.907Z,6.80
2018-12-07T08:51:11.446Z,4.40
2018-12-07T08:52:50.268Z,5.20
2018-12-07T08:54:30.242Z,3.80
2018-12-07T08:56:10.831Z,3.60
2018-12-07T08:57:51.233Z,4.00
2018-12-07T08:59:26.352Z,3.00
2018-12-07T09:01:06.840Z,3.40
2018-12-07T09:02:43.318Z,3.00
2018-12-07T09:04:27.565Z,4.80
2018-12-07T09:06:03.813Z,4.00
2018-12-07T09:07:45.328Z,4.00
2018-12-07T09:09:23.148Z,3.80
2018-12-07T09:11:03.883Z,3.00
2018-12-07T09:12:42.436Z,3.80
2018-12-07T09:14:20.956Z,7.40
2018-12-07T09:16:00.637Z,4.00
2018-12-07T09:17:37.513Z,3.00
2018-12-07T09:19:13.719Z,4.40
2018-12-07T09:20:54.018Z,1.80
2018-12-07T09:22:34.592Z,6.00
2018-12-07T09:25:54.045Z,3.40
2018-12-07T09:27:30.414Z,5.60
2018-12-07T09:29:05.673Z,4.00
2018-12-07T09:30:41.337Z,3.00
2018-12-07T09:32:17.729Z,4.00
2018-12-07T09:33:54.870Z,3.00
2018-12-07T09:35:30.751Z,2.60
2018-12-07T09:37:06.106Z,3.00
2018-12-07T09:38:45.051Z,3.00
2018-12-07T09:40:20.923Z,0.80
2018-12-07T09:41:57.537Z,4.00
2018-12-07T09:43:33.672Z,3.20
2018-12-07T09:45:13.394Z,3.00
2018-12-07T09:46:56.203Z,1.00
2018-12-07T09:48:34.692Z,3.00
2018-12-07T09:50:10.481Z,4.00
2018-12-07T09:51:47.279Z,3.00
2018-12-07T09:53:22.468Z,1.00
2018-12-07T09:55:00.726Z,6.60
2018-12-07T09:56:36.609Z,4.00
2018-12-07T09:58:12.248Z,3.00
2018-12-07T09:59:47.423Z,4.00
2018-12-07T10:01:22.712Z,4.00
2018-12-07T10:02:58.942Z,4.00
2018-12-07T10:04:34.477Z,4.00
2018-12-07T10:06:09.641Z,4.00
2018-12-07T10:07:45.659Z,3.60
2018-12-07T10:09:21.347Z,3.00
2018-12-07T10:10:56.727Z,3.40
2018-12-07T10:12:32.971Z,3.00
2018-12-07T10:14:09.935Z,4.60
2018-12-07T10:15:45.206Z,4.00
2018-12-07T10:17:22.645Z,4.00
2018-12-07T10:18:58.590Z,3.00
2018-12-07T10:20:33.860Z,4.00
2018-12-07T10:22:09.470Z,1.40
2018-12-07T10:23:45.853Z,4.00
2018-12-07T10:25:21.390Z,5.20
2018-12-07T10:26:58.607Z,4.40
2018-12-07T10:28:34.912Z,6.00
2018-12-07T10:30:11.028Z,6.00
2018-12-07T10:31:49.225Z,4.00
2018-12-07T10:33:25.305Z,5.80
2018-12-07T10:35:02.501Z,4.00
2018-12-07T10:36:41.976Z,6.00
2018-12-07T10:38:19.041Z,7.20
2018-12-07T10:39:55.549Z,5.20
2018-12-07T10:41:36.056Z,6.00
2018-12-07T10:43:12.466Z,4.80
2018-12-07T10:44:48.460Z,5.60
2018-12-07T10:46:24.951Z,6.60
2018-12-07T10:48:00.304Z,4.00
2018-12-07T10:49:43.280Z,4.00
2018-12-07T10:51:32.785Z,5.60
2018-12-07T10:53:15.913Z,3.40
2018-12-07T10:56:38.195Z,4.00
2018-12-07T10:58:18.041Z,4.40
2018-12-07T10:59:53.822Z,4.80
2018-12-07T11:01:34.199Z,6.00
2018-12-07T11:03:15.221Z,4.00
2018-12-07T11:04:56.603Z,5.20
2018-12-07T11:06:37.403Z,5.20
2018-12-07T11:08:21.918Z,7.00
2018-12-07T11:10:09.253Z,4.40
2018-12-07T11:13:55.581Z,4.00
2018-12-07T11:15:41.909Z,5.20
2018-12-07T11:17:25.317Z,8.80
2018-12-07T11:19:06.360Z,6.80
2018-12-07T11:20:48.535Z,5.60
2018-12-07T11:22:29.645Z,3.00
2018-12-07T11:24:10.209Z,7.00
2018-12-07T11:25:50.403Z,6.00
2018-12-07T11:27:30.681Z,6.00
2018-12-07T11:29:10.744Z,3.00
2018-12-07T11:30:51.135Z,4.00
2018-12-07T11:32:32.542Z,1.40
2018-12-07T11:34:12.790Z,4.00
2018-12-07T11:35:49.237Z,4.00
2018-12-07T11:37:24.501Z,4.80
2018-12-07T11:39:01.225Z,3.60
2018-12-07T11:40:38.307Z,1.40
2018-12-07T11:42:15.395Z,3.00
2018-12-07T11:43:52.180Z,0.00
2018-12-07T11:45:28.630Z,1.40
2018-12-07T11:47:08.156Z,3.00
2018-12-07T11:48:44.563Z,5.60
2018-12-07T11:50:24.597Z,3.00
2018-12-07T11:52:15.866Z,4.00
2018-12-07T11:53:54.112Z,3.60
2018-12-07T11:55:32.907Z,3.80
2018-12-07T11:57:08.267Z,3.60
2018-12-07T11:58:44.221Z,0.80
2018-12-07T12:00:21.547Z,3.00
2018-12-07T12:01:57.526Z,1.00
2018-12-07T12:03:33.092Z,2.60
2018-12-07T12:05:08.539Z,3.00
2018-12-07T12:06:43.781Z,3.00
2018-12-07T12:08:20.523Z,5.20
2018-12-07T12:10:19.975Z,6.00
2018-12-07T12:11:55.077Z,3.00
2018-12-07T12:13:32.304Z,3.40
2018-12-07T12:15:09.679Z,3.40
2018-12-07T12:16:44.960Z,2.60
2018-12-07T12:18:21.149Z,3.20
2018-12-07T12:19:58.398Z,4.00
2018-12-07T12:21:35.438Z,3.80
2018-12-07T12:23:11.640Z,3.00
2018-12-07T12:24:48.851Z,3.00
2018-12-07T12:26:24.039Z,3.40
2018-12-07T12:28:00.652Z,3.00
2018-12-07T12:29:35.976Z,3.00
2018-12-07T12:31:13.779Z,1.80
2018-12-07T12:32:49.493Z,1.00
2018-12-07T12:34:26.702Z,2.60
2018-12-07T12:36:02.887Z,3.00
2018-12-07T12:37:40.485Z,1.00
2018-12-07T12:39:17.279Z,1.40
2018-12-07T12:40:53.494Z,1.00
2018-12-07T12:42:34.455Z,0.20
2018-12-07T12:44:11.224Z,1.40
2018-12-07T12:45:50.018Z,1.00
2018-12-07T12:47:27.407Z,2.20
2018-12-07T12:49:04.699Z,0.00
2018-12-07T12:50:39.888Z,1.80
2018-12-07T12:52:17.011Z,1.00
2018-12-07T12:53:53.433Z,1.00
2018-12-07T12:55:29.513Z,0.80
2018-12-07T12:57:07.669Z,0.80
2018-12-07T12:58:48.490Z,1.00
2018-12-07T13:00:25.679Z,3.00
2018-12-07T13:02:03.484Z,0.00
2018-12-07T13:03:39.429Z,1.00
2018-12-07T13:05:14.914Z,3.00
2018-12-07T13:06:53.115Z,1.00
2018-12-07T13:08:33.314Z,1.00
2018-12-07T13:10:10.812Z,0.00
2018-12-07T13:11:51.182Z,1.80
2018-12-07T13:13:27.956Z,0.60
2018-12-07T13:15:08.559Z,1.00
2018-12-07T13:16:48.655Z,0.80
2018-12-07T13:18:26.124Z,1.00
2018-12-07T13:20:01.917Z,1.00
2018-12-07T13:21:43.129Z,3.20
2018-12-07T13:25:02.833Z,1.00
2018-12-07T13:26:47.256Z,1.00
2018-12-07T13:28:29.709Z,1.00
2018-12-07T13:30:09.756Z,3.00
2018-12-07T13:31:48.259Z,1.40
2018-12-07T13:33:27.347Z,1.00
2018-12-07T13:35:03.379Z,3.00
2018-12-07T13:36:41.558Z,0.20
2018-12-07T13:38:23.058Z,0.20
2018-12-07T13:39:58.878Z,0.00
2018-12-07T13:41:37.390Z,1.00
2018-12-07T13:43:17.869Z,1.00
2018-12-07T13:44:54.675Z,3.00
2018-12-07T13:46:31.562Z,1.00
2018-12-07T13:48:12.500Z,0.00
2018-12-07T13:49:56.691Z,0.00
2018-12-07T13:51:34.068Z,0.00
2018-12-07T13:53:12.034Z,1.00
2018-12-07T13:54:47.654Z,1.00
2018-12-07T13:56:23.747Z,1.00
2018-12-07T13:58:03.053Z,1.00
2018-12-07T13:59:40.148Z,1.00
2018-12-07T14:01:15.869Z,0.80
2018-12-07T14:02:54.387Z,1.40
2018-12-07T14:04:32.178Z,1.00
2018-12-07T14:06:09.197Z,0.80
2018-12-07T14:07:46.199Z,3.00
2018-12-07T14:09:26.144Z,4.00
2018-12-07T14:11:05.070Z,1.00
2018-12-07T14:12:42.373Z,1.00
2018-12-07T14:14:18.945Z,1.00
2018-12-07T14:15:58.267Z,3.00
2018-12-07T14:17:35.854Z,0.00
2018-12-07T14:19:14.046Z,0.60
2018-12-07T14:22:58.322Z,1.00
2018-12-07T14:24:35.573Z,0.00
2018-12-07T14:26:11.623Z,1.00
2018-12-07T14:27:49.399Z,0.00
2018-12-07T14:29:29.604Z,1.00
2018-12-07T14:31:05.938Z,0.00
2018-12-07T14:32:43.301Z,1.00
2018-12-07T14:34:28.661Z,1.00
2018-12-07T14:36:20.890Z,0.80
2018-12-07T14:38:11.889Z,0.00
2018-12-07T14:39:54.962Z,1.00
2018-12-07T14:41:48.391Z,1.00
2018-12-07T14:43:47.335Z,3.00
2018-12-07T14:45:25.709Z,1.80
2018-12-07T14:47:03.530Z,2.20
2018-12-07T14:48:41.160Z,0.60
2018-12-07T14:50:18.778Z,3.00
2018-12-07T14:51:55.567Z,0.00
2018-12-07T14:53:34.465Z,0.00
2018-12-07T14:55:15.009Z,0.00
2018-12-07T14:56:54.682Z,0.00
2018-12-07T14:58:32.379Z,0.00
2018-12-07T15:00:11.583Z,0.00
2018-12-07T15:01:48.950Z,1.00
2018-12-07T15:03:24.502Z,0.60
2018-12-07T15:05:08.889Z,0.00
2018-12-07T15:06:45.600Z,0.00
2018-12-07T15:08:21.953Z,0.00
2018-12-07T15:09:58.667Z,0.00
2018-12-07T15:11:34.940Z,0.00
2018-12-07T15:13:12.682Z,0.80
2018-12-07T15:14:50.071Z,1.00
2018-12-07T15:16:26.303Z,0.20
2018-12-07T15:18:02.977Z,0.00
2018-12-07T15:19:38.932Z,0.60
2018-12-07T15:21:14.515Z,1.00
2018-12-07T15:22:51.432Z,0.00
2018-12-07T15:24:29.449Z,0.20
2018-12-07T15:26:05.440Z,0.00
2018-12-07T15:27:44.865Z,0.00
2018-12-07T15:29:22.643Z,0.00
2018-12-07T15:30:59.223Z,0.00
2018-12-07T15:32:35.541Z,0.00
2018-12-07T15:34:11.009Z,0.20
2018-12-07T15:35:58.618Z,0.60
2018-12-07T15:37:36.081Z,0.00
2018-12-07T15:39:16.660Z,0.00
2018-12-07T15:40:53.681Z,0.00
2018-12-07T15:42:31.868Z,0.40
2018-12-07T15:44:16.251Z,0.00
2018-12-07T15:45:55.445Z,1.00
2018-12-07T15:47:34.197Z,0.00
2018-12-07T15:49:11.210Z,0.00
2018-12-07T15:50:54.111Z,0.80
2018-12-07T15:52:33.003Z,0.00
2018-12-07T15:54:12.333Z,0.00
2018-12-07T15:55:49.323Z,0.00
2018-12-07T15:57:25.471Z,0.00
2018-12-07T15:59:03.286Z,0.00
2018-12-07T16:00:55.099Z,0.00
2018-12-07T16:04:24.556Z,0.00
2018-12-07T16:06:02.885Z,0.00
2018-12-07T16:07:39.814Z,1.00
2018-12-07T16:09:23.853Z,0.80
2018-12-07T16:11:01.705Z,0.00
2018-12-07T16:12:43.476Z,0.00
2018-12-07T16:14:20.874Z,1.00
2018-12-07T16:15:57.384Z,0.40
2018-12-07T16:17:39.203Z,0.00
2018-12-07T16:19:16.404Z,0.00
2018-12-07T16:20:53.800Z,2.60
2018-12-07T16:22:31.077Z,7.80
2018-12-07T16:24:09.313Z,7.20
2018-12-07T16:25:46.666Z,3.00
2018-12-07T16:27:25.309Z,6.20
2018-12-07T16:29:02.945Z,1.00
2018-12-07T16:30:39.431Z,3.00
2018-12-07T16:32:17.737Z,3.00
2018-12-07T16:33:55.414Z,2.60
2018-12-07T16:35:34.033Z,1.00
2018-12-07T16:37:14.571Z,0.60
2018-12-07T16:38:53.634Z,3.60
2018-12-07T16:40:33.469Z,1.80
2018-12-07T16:42:10.123Z,0.80
2018-12-07T16:43:46.815Z,17.80
2018-12-07T16:45:30.268Z,3.40
2018-12-07T16:47:10.206Z,2.20
2018-12-07T16:48:55.986Z,1.00
2018-12-07T16:50:34.590Z,3.00
2018-12-07T16:52:09.973Z,1.00
2018-12-07T16:53:45.282Z,3.00
2018-12-07T16:55:22.594Z,1.40
2018-12-07T16:56:59.098Z,3.00
2018-12-07T16:58:36.532Z,3.00
2018-12-07T17:00:17.815Z,3.00
2018-12-07T17:01:55.817Z,1.00
2018-12-07T17:03:41.579Z,3.00
2018-12-07T17:05:24.100Z,3.80
2018-12-07T17:07:13.130Z,3.40
2018-12-07T17:08:53.954Z,1.80
2018-12-07T17:10:30.561Z,5.60
2018-12-07T17:12:06.797Z,3.00
2018-12-07T17:13:44.315Z,3.40
2018-12-07T17:15:24.627Z,1.40
2018-12-07T17:17:01.571Z,1.00
2018-12-07T17:18:40.804Z,3.40
2018-12-07T17:20:19.447Z,5.20
2018-12-07T17:21:58.379Z,2.20
2018-12-07T17:23:39.167Z,3.60
2018-12-07T17:25:15.490Z,3.00
2018-12-07T17:26:52.930Z,3.00
2018-12-07T17:28:29.515Z,3.00
2018-12-07T17:30:10.168Z,2.60
2018-12-07T17:31:52.430Z,1.00
2018-12-07T17:33:31.441Z,3.00
2018-12-07T17:35:12.326Z,2.20
2018-12-07T17:36:49.723Z,0.00
2018-12-07T17:38:33.662Z,1.00
2018-12-07T17:40:14.346Z,3.00
2018-12-07T17:41:57.742Z,3.00
2018-12-07T17:43:42.646Z,1.40
2018-12-07T17:45:23.859Z,1.00
2018-12-07T17:46:59.865Z,3.00
2018-12-07T17:48:36.595Z,1.00
2018-12-07T17:50:17.419Z,3.40
2018-12-07T17:51:54.983Z,3.80
2018-12-07T17:53:31.276Z,4.00
2018-12-07T17:55:08.903Z,0.60
2018-12-07T17:56:48.337Z,3.60
2018-12-07T17:58:25.732Z,4.00
2018-12-07T18:00:13.916Z,3.40
2018-12-07T18:03:46.520Z,1.00
2018-12-07T18:05:24.346Z,1.00
2018-12-07T18:07:00.720Z,2.20
2018-12-07T18:08:42.249Z,1.40
2018-12-07T18:10:19.908Z,1.00
2018-12-07T18:11:58.863Z,1.40
2018-12-07T18:13:39.386Z,1.80
2018-12-07T18:15:25.081Z,3.80
2018-12-07T18:17:03.135Z,3.00
2018-12-07T18:18:57.722Z,4.80
2018-12-07T18:20:43.145Z,3.00
2018-12-07T18:22:19.083Z,1.80
2018-12-07T18:24:03.881Z,0.00
2018-12-07T18:25:44.151Z,1.00
2018-12-07T18:27:23.836Z,4.80
2018-12-07T18:29:00.244Z,0.00
2018-12-07T18:30:39.422Z,2.20
2018-12-07T18:32:16.722Z,0.60
2018-12-07T18:33:54.479Z,3.00
2018-12-07T18:35:30.597Z,1.00
2018-12-07T18:37:06.959Z,3.00
2018-12-07T18:38:45.188Z,3.00
2018-12-07T18:40:24.120Z,4.00
2018-12-07T18:42:00.972Z,5.60
2018-12-07T18:43:36.978Z,4.40
2018-12-07T18:45:15.469Z,3.80
2018-12-07T18:46:55.502Z,4.00
2018-12-07T18:48:34.222Z,3.20
2018-12-07T18:50:17.919Z,4.00
2018-12-07T18:51:56.570Z,4.20
2018-12-07T18:53:35.687Z,6.00
2018-12-07T18:55:16.776Z,5.20
2018-12-07T18:57:05.847Z,6.00
2018-12-07T18:59:12.006Z,3.00
2018-12-07T19:00:57.772Z,5.20
2018-12-07T19:02:45.935Z,4.00
2018-12-07T19:04:23.716Z,6.00
2018-12-07T19:06:10.689Z,3.40
2018-12-07T19:07:51.291Z,7.80
2018-12-07T19:09:31.280Z,3.40
2018-12-07T19:11:10.131Z,1.00
2018-12-07T19:14:51.508Z,1.00
2018-12-07T19:16:35.333Z,0.00
2018-12-07T19:18:14.115Z,0.00
2018-12-07T19:19:50.235Z,0.00
2018-12-07T19:21:29.919Z,0.00
2018-12-07T19:23:09.740Z,0.00
2018-12-07T19:24:45.724Z,0.00
2018-12-07T19:26:28.729Z,0.00
2018-12-07T19:28:06.312Z,0.00
2018-12-07T19:29:48.351Z,0.00
2018-12-07T19:31:26.534Z,0.00
2018-12-07T19:33:04.522Z,0.00
2018-12-07T19:34:42.643Z,0.80
2018-12-07T19:36:29.730Z,0.00
2018-12-07T19:38:15.178Z,0.00
2018-12-07T19:39:54.281Z,0.00
2018-12-07T19:41:29.675Z,0.00
2018-12-07T19:43:07.869Z,0.00
2018-12-07T19:44:44.184Z,3.00
2018-12-07T19:46:21.132Z,0.00
2018-12-07T19:47:57.430Z,0.00
2018-12-07T19:49:34.003Z,0.00
2018-12-07T19:51:12.318Z,2.20
2018-12-07T19:52:48.749Z,0.40
2018-12-07T19:54:26.083Z,1.00
2018-12-07T19:56:03.139Z,1.00
2018-12-07T19:57:38.484Z,1.00
2018-12-07T19:59:16.491Z,1.00
2018-12-07T20:00:52.966Z,1.80
2018-12-07T20:02:32.285Z,3.00
2018-12-07T20:04:10.025Z,0.60
2018-12-07T20:05:45.342Z,2.80
2018-12-07T20:07:27.669Z,3.20
2018-12-07T20:09:05.913Z,2.20
2018-12-07T20:10:42.239Z,1.00
2018-12-07T20:12:18.556Z,1.00
2018-12-07T20:13:55.175Z,0.00
2018-12-07T20:15:31.292Z,2.60
2018-12-07T20:17:06.572Z,1.40
2018-12-07T20:18:41.770Z,1.00
2018-12-07T20:20:17.962Z,1.00
2018-12-07T20:21:58.542Z,1.00
2018-12-07T20:23:36.146Z,3.40
2018-12-07T20:25:15.057Z,3.60
2018-12-07T20:26:50.848Z,2.60
2018-12-07T20:28:30.134Z,2.20
2018-12-07T20:30:08.731Z,5.20
2018-12-07T20:31:44.355Z,1.00
2018-12-07T20:33:21.985Z,3.00
2018-12-07T20:34:58.559Z,4.80
2018-12-07T20:36:36.279Z,6.20
2018-12-07T20:38:13.788Z,3.40
2018-12-07T20:39:49.909Z,3.60
2018-12-07T20:41:27.573Z,2.20
2018-12-07T20:43:05.619Z,1.80
2018-12-07T20:44:40.858Z,4.00
2018-12-07T20:46:17.817Z,6.80
2018-12-07T20:47:55.365Z,6.20
2018-12-07T20:49:30.673Z,6.20
2018-12-07T20:51:14.822Z,6.20
2018-12-07T20:52:52.848Z,6.40
2018-12-07T20:54:35.479Z,7.00
2018-12-07T20:56:15.714Z,6.00
2018-12-07T20:57:51.668Z,7.60
2018-12-07T20:59:27.714Z,8.60
2018-12-07T21:02:45.335Z,10.60
2018-12-07T21:04:35.385Z,10.00
2018-12-07T21:08:48.769Z,4.00
2018-12-07T21:11:38.878Z,1.80
2018-12-07T21:13:36.469Z,5.20
2018-12-07T21:15:15.484Z,5.20
2018-12-07T21:17:06.788Z,2.20
2018-12-07T21:18:43.317Z,1.00
2018-12-07T21:20:24.168Z,1.00
2018-12-07T21:22:01.867Z,3.00
2018-12-07T21:23:40.397Z,0.60
2018-12-07T21:25:17.524Z,0.00
2018-12-07T21:26:53.861Z,0.00
2018-12-07T21:28:29.299Z,0.00
2018-12-07T21:32:19.345Z,0.00
2018-12-07T21:34:28.451Z,0.00
2018-12-07T21:36:27.587Z,0.20
2018-12-07T21:38:09.911Z,0.00
2018-12-07T21:40:11.330Z,1.00
2018-12-07T21:41:49.155Z,0.20
2018-12-07T21:43:27.113Z,1.80
2018-12-07T21:45:09.014Z,1.80
2018-12-07T21:46:51.588Z,1.00
2018-12-07T21:48:34.846Z,0.00
2018-12-07T21:50:16.255Z,1.00
2018-12-07T21:52:18.677Z,1.00
2018-12-07T21:53:55.660Z,1.40
2018-12-07T21:55:33.605Z,1.00
2018-12-07T21:57:08.822Z,3.00
2018-12-07T21:58:44.205Z,1.00
2018-12-07T22:00:22.800Z,4.80
2018-12-07T22:02:07.405Z,5.60
2018-12-07T22:03:48.489Z,4.80
2018-12-07T22:05:24.130Z,6.00
2018-12-07T22:07:03.116Z,8.60
2018-12-07T22:08:40.985Z,6.20
2018-12-07T22:10:26.827Z,11.20
2018-12-07T22:12:05.699Z,12.80
2018-12-07T22:13:45.778Z,11.00
2018-12-07T22:15:22.552Z,13.20
2018-12-07T22:17:02.692Z,12.20
2018-12-07T22:18:40.559Z,15.40